createdAt,value
2017-10-18T00:01:07.676Z,17.17
2017-10-18T00:03:35.775Z,17.10
2017-10-18T00:06:03.847Z,17.50
2017-10-18T00:08:31.941Z,17.10
2017-10-18T00:11:00.784Z,17.23
2017-10-18T00:13:28.876Z,17.97
2017-10-18T00:15:56.949Z,19.50
2017-10-18T00:18:25.031Z,18.33
2017-10-18T00:20:53.875Z,18.80
2017-10-18T00:23:21.972Z,20.63
2017-10-18T00:25:50.045Z,19.70
2017-10-18T00:28:18.135Z,19.60
2017-10-18T00:30:46.274Z,19.43
2017-10-18T00:33:14.448Z,17.77
2017-10-18T00:35:42.519Z,17.33
2017-10-18T00:38:10.604Z,20.23
2017-10-18T00:40:38.681Z,18.57
2017-10-18T00:43:06.769Z,17.00
2017-10-18T00:45:34.841Z,15.97
2017-10-18T00:48:02.932Z,15.43
2017-10-18T00:50:31.791Z,14.53
2017-10-18T00:52:59.888Z,18.83
2017-10-18T00:55:27.971Z,20.00
2017-10-18T00:57:56.820Z,18.37
2017-10-18T01:00:24.901Z,19.03
2017-10-18T01:02:52.986Z,21.77
2017-10-18T01:05:21.064Z,24.10
2017-10-18T01:07:49.147Z,21.60
2017-10-18T01:10:17.998Z,20.20
2017-10-18T01:12:46.100Z,20.47
2017-10-18T01:15:14.179Z,17.73
2017-10-18T01:17:42.264Z,17.93
2017-10-18T01:20:11.124Z,17.93
2017-10-18T01:22:39.211Z,17.57
2017-10-18T01:25:07.313Z,18.37
2017-10-18T01:27:36.176Z,21.73
2017-10-18T01:30:04.248Z,20.77
2017-10-18T01:32:32.328Z,21.10
2017-10-18T01:35:01.189Z,18.93
2017-10-18T01:37:29.260Z,17.87
2017-10-18T01:39:57.344Z,19.90
2017-10-18T01:42:25.427Z,18.60
2017-10-18T01:44:53.512Z,21.17
2017-10-18T01:47:22.347Z,19.93
2017-10-18T01:49:50.439Z,20.57
2017-10-18T01:52:18.525Z,21.00
2017-10-18T01:54:46.608Z,22.60
2017-10-18T01:57:14.683Z,33.37
2017-10-18T01:59:42.772Z,24.97
2017-10-18T02:02:11.616Z,24.90
2017-10-18T02:04:39.712Z,26.47
2017-10-18T02:07:07.796Z,25.27
2017-10-18T02:09:35.880Z,22.13
2017-10-18T02:12:04.728Z,22.63
2017-10-18T02:14:32.992Z,21.40
2017-10-18T02:17:01.167Z,24.60
2017-10-18T02:19:29.255Z,24.00
2017-10-18T02:21:57.350Z,27.70
2017-10-18T02:24:25.445Z,42.37
2017-10-18T02:26:53.515Z,43.77
2017-10-18T02:29:22.364Z,41.70
2017-10-18T02:31:50.458Z,44.07
2017-10-18T02:34:18.548Z,41.10
2017-10-18T02:36:47.395Z,39.97
2017-10-18T02:39:15.487Z,36.73
2017-10-18T02:41:43.564Z,32.23
2017-10-18T02:44:11.639Z,34.10
2017-10-18T02:46:39.724Z,31.20
2017-10-18T02:49:08.576Z,34.47
2017-10-18T02:51:36.668Z,44.90
2017-10-18T02:54:04.762Z,45.57
2017-10-18T02:56:33.611Z,37.57
2017-10-18T02:59:01.700Z,32.03
2017-10-18T03:01:29.780Z,29.70
2017-10-18T03:03:57.860Z,33.20
2017-10-18T03:06:25.941Z,38.00
2017-10-18T03:08:54.800Z,32.77
2017-10-18T03:11:22.873Z,31.00
2017-10-18T03:13:50.975Z,29.63
2017-10-18T03:16:19.837Z,29.57
2017-10-18T03:18:47.931Z,29.60
2017-10-18T03:21:16.012Z,24.47
2017-10-18T03:23:44.912Z,27.03
2017-10-18T03:26:13.786Z,31.63
2017-10-18T03:28:41.891Z,25.40
2017-10-18T03:31:09.997Z,26.60
2017-10-18T03:33:38.079Z,23.03
2017-10-18T03:36:06.167Z,24.67
2017-10-18T03:38:34.264Z,20.97
2017-10-18T03:41:03.112Z,27.50
2017-10-18T03:43:31.221Z,32.20
2017-10-18T03:46:00.084Z,38.17
2017-10-18T03:48:28.195Z,43.87
2017-10-18T03:50:57.075Z,29.60
2017-10-18T03:53:25.936Z,24.00
2017-10-18T03:55:54.028Z,23.47
2017-10-18T03:58:22.120Z,25.37
2017-10-18T04:00:50.975Z,25.30
2017-10-18T04:03:19.067Z,26.73
2017-10-18T04:05:47.153Z,19.60
2017-10-18T04:08:16.048Z,21.13
2017-10-18T04:10:44.900Z,19.90
2017-10-18T04:13:12.984Z,20.37
2017-10-18T04:15:41.071Z,22.77
2017-10-18T04:18:09.159Z,26.00
2017-10-18T04:20:38.015Z,24.60
2017-10-18T04:23:06.096Z,21.97
2017-10-18T04:25:34.180Z,19.80
2017-10-18T04:28:02.261Z,21.40
2017-10-18T04:30:31.125Z,18.80
2017-10-18T04:32:59.205Z,21.40
2017-10-18T04:35:27.287Z,22.90
2017-10-18T04:37:55.369Z,27.90
2017-10-18T04:40:24.222Z,36.77
2017-10-18T04:42:52.311Z,39.60
2017-10-18T04:45:20.619Z,31.73
2017-10-18T04:47:49.468Z,37.73
2017-10-18T04:50:17.564Z,26.60
2017-10-18T04:52:45.635Z,32.97
2017-10-18T04:55:13.733Z,35.37
2017-10-18T04:57:42.594Z,36.77
2017-10-18T05:00:10.672Z,34.37
2017-10-18T05:02:38.761Z,33.47
2017-10-18T05:05:07.612Z,26.60
2017-10-18T05:07:35.700Z,36.70
2017-10-18T05:10:03.780Z,32.37
2017-10-18T05:12:31.861Z,36.10
2017-10-18T05:15:00.760Z,34.30
2017-10-18T05:17:29.613Z,45.27
2017-10-18T05:19:57.707Z,37.83
2017-10-18T05:22:25.791Z,44.07
2017-10-18T05:24:53.871Z,55.93
2017-10-18T05:27:22.721Z,35.67
2017-10-18T05:29:50.807Z,36.63
2017-10-18T05:32:18.897Z,34.27
2017-10-18T05:34:47.757Z,27.23
2017-10-18T05:37:16.636Z,23.67
2017-10-18T05:39:44.730Z,23.20
2017-10-18T05:42:12.818Z,27.33
2017-10-18T05:44:40.913Z,30.30
2017-10-18T05:47:09.773Z,26.70
2017-10-18T05:49:37.858Z,26.27
2017-10-18T05:52:06.721Z,31.47
2017-10-18T05:54:34.819Z,29.00
2017-10-18T05:57:02.903Z,27.10
2017-10-18T05:59:31.773Z,30.80
2017-10-18T06:01:59.864Z,27.50
2017-10-18T06:04:28.748Z,26.20
2017-10-18T06:06:56.822Z,26.73
2017-10-18T06:09:24.915Z,26.07
2017-10-18T06:11:53.757Z,28.73
2017-10-18T06:14:21.852Z,28.87
2017-10-18T06:16:49.956Z,26.13
2017-10-18T06:19:18.797Z,24.93
2017-10-18T06:21:46.883Z,23.87
2017-10-18T06:24:14.967Z,21.07
2017-10-18T06:26:43.048Z,21.53
2017-10-18T06:29:11.915Z,20.80
2017-10-18T06:31:39.993Z,20.80
2017-10-18T06:34:08.075Z,22.10
2017-10-18T06:36:36.171Z,20.93
2017-10-18T06:39:05.021Z,20.47
2017-10-18T06:41:33.106Z,19.83
2017-10-18T06:44:01.236Z,20.37
2017-10-18T06:46:30.100Z,21.80
2017-10-18T06:48:58.200Z,23.00
2017-10-18T06:51:26.281Z,24.87
2017-10-18T06:53:54.388Z,23.03
2017-10-18T06:56:22.465Z,23.70
2017-10-18T06:58:50.552Z,21.57
2017-10-18T07:01:19.421Z,27.20
2017-10-18T07:03:47.500Z,30.30
2017-10-18T07:06:15.602Z,30.20
2017-10-18T07:08:44.444Z,29.87
2017-10-18T07:11:12.530Z,28.00
2017-10-18T07:13:40.615Z,31.77
2017-10-18T07:16:08.687Z,29.10
2017-10-18T07:18:36.769Z,27.90
2017-10-18T07:21:05.630Z,26.37
2017-10-18T07:23:33.704Z,26.10
2017-10-18T07:26:01.801Z,27.30
2017-10-18T07:28:29.872Z,25.13
2017-10-18T07:30:58.735Z,27.57
2017-10-18T07:33:26.816Z,26.17
2017-10-18T07:35:54.906Z,27.87
2017-10-18T07:38:22.989Z,29.67
2017-10-18T07:40:51.846Z,29.13
2017-10-18T07:43:19.924Z,29.37
2017-10-18T07:45:48.013Z,26.97
2017-10-18T07:48:16.078Z,26.93
2017-10-18T07:50:44.187Z,30.47
2017-10-18T07:53:12.329Z,30.77
2017-10-18T07:55:40.420Z,31.17
2017-10-18T07:58:09.265Z,31.90
2017-10-18T08:00:37.352Z,31.60
2017-10-18T08:03:05.437Z,30.77
2017-10-18T08:05:33.527Z,30.97
2017-10-18T08:08:02.376Z,29.40
2017-10-18T08:10:30.467Z,30.17
2017-10-18T08:12:58.556Z,28.10
2017-10-18T08:15:27.409Z,30.37
2017-10-18T08:17:55.485Z,28.20
2017-10-18T08:20:23.571Z,30.40
2017-10-18T08:22:51.640Z,27.17
2017-10-18T08:25:19.727Z,27.17
2017-10-18T08:27:47.810Z,29.33
2017-10-18T08:30:16.666Z,27.33
2017-10-18T08:32:44.740Z,25.93
2017-10-18T08:35:12.835Z,23.93
2017-10-18T08:37:40.907Z,23.23
2017-10-18T08:40:08.997Z,23.20
2017-10-18T08:42:37.844Z,23.30
2017-10-18T08:45:05.929Z,25.00
2017-10-18T08:47:34.004Z,25.97
2017-10-18T08:50:02.088Z,24.47
2017-10-18T08:52:30.171Z,26.73
2017-10-18T08:54:59.054Z,25.43
2017-10-18T08:57:27.129Z,28.60
2017-10-18T08:59:55.218Z,26.37
2017-10-18T09:02:24.065Z,26.43
2017-10-18T09:04:52.164Z,27.10
2017-10-18T09:07:20.237Z,25.70
2017-10-18T09:09:49.108Z,26.10
2017-10-18T09:12:17.183Z,23.80
2017-10-18T09:14:45.277Z,21.53
2017-10-18T09:17:13.359Z,20.70
2017-10-18T09:19:42.245Z,20.87
2017-10-18T09:22:12.923Z,20.97
2017-10-18T09:24:41.019Z,21.80
2017-10-18T09:27:09.113Z,23.07
2017-10-18T09:29:37.199Z,21.60
2017-10-18T09:32:06.047Z,22.73
2017-10-18T09:34:34.146Z,21.03
2017-10-18T09:37:02.227Z,22.13
2017-10-18T09:39:30.312Z,21.40
2017-10-18T09:41:59.159Z,21.13
2017-10-18T09:44:27.250Z,21.10
2017-10-18T09:46:55.345Z,21.80
2017-10-18T09:49:24.184Z,24.83
2017-10-18T09:51:52.271Z,21.37
2017-10-18T09:54:20.360Z,21.50
2017-10-18T09:56:48.453Z,22.97
2017-10-18T09:59:17.296Z,24.80
2017-10-18T10:01:45.384Z,23.60
2017-10-18T10:04:13.465Z,25.73
2017-10-18T10:06:41.554Z,24.93
2017-10-18T10:09:10.414Z,24.60
2017-10-18T10:11:38.507Z,26.90
2017-10-18T10:14:06.592Z,25.30
2017-10-18T10:16:35.484Z,25.17
2017-10-18T10:19:03.564Z,25.47
2017-10-18T10:21:32.417Z,26.10
2017-10-18T10:24:00.501Z,25.10
2017-10-18T10:26:28.585Z,24.80
2017-10-18T10:28:56.667Z,23.23
2017-10-18T10:31:24.760Z,24.80
2017-10-18T10:33:52.833Z,23.30
2017-10-18T10:36:21.681Z,25.17
2017-10-18T10:38:49.763Z,22.27
2017-10-18T10:41:17.844Z,24.23
2017-10-18T10:43:46.696Z,27.30
2017-10-18T10:46:14.770Z,25.33
2017-10-18T10:48:42.857Z,24.60
2017-10-18T10:51:11.000Z,27.27
2017-10-18T10:53:39.841Z,24.43
2017-10-18T10:56:07.915Z,24.23
2017-10-18T10:58:36.000Z,24.80
2017-10-18T11:01:04.852Z,24.77
2017-10-18T11:03:32.930Z,25.67
2017-10-18T11:06:01.005Z,25.57
2017-10-18T11:08:29.099Z,22.33
2017-10-18T11:10:57.196Z,25.53
2017-10-18T11:13:25.288Z,24.73
2017-10-18T11:15:53.376Z,22.43
2017-10-18T11:18:22.212Z,22.63
2017-10-18T11:20:51.082Z,24.97
2017-10-18T11:23:19.156Z,25.23
2017-10-18T11:25:47.251Z,25.53
2017-10-18T11:28:16.108Z,24.10
2017-10-18T11:30:44.209Z,23.30
2017-10-18T11:33:13.179Z,24.90
2017-10-18T11:35:41.340Z,25.03
2017-10-18T11:38:09.412Z,25.17
2017-10-18T11:40:37.500Z,23.47
2017-10-18T11:43:05.590Z,24.37
2017-10-18T11:45:33.671Z,25.80
2017-10-18T11:48:02.515Z,24.37
2017-10-18T11:50:31.356Z,23.63
2017-10-18T11:53:00.215Z,23.77
2017-10-18T11:55:28.328Z,24.40
2017-10-18T11:57:57.168Z,24.13
2017-10-18T12:00:25.266Z,24.13
2017-10-18T12:02:53.343Z,24.93
2017-10-18T12:05:21.419Z,22.37
2017-10-18T12:07:49.496Z,24.00
2017-10-18T12:10:18.364Z,24.53
2017-10-18T12:12:46.448Z,24.00
2017-10-18T12:15:14.536Z,25.37
2017-10-18T12:17:43.384Z,21.10
2017-10-18T12:20:11.460Z,25.07
2017-10-18T12:22:39.561Z,23.30
2017-10-18T12:25:07.633Z,22.77
2017-10-18T12:27:35.724Z,22.20
2017-10-18T12:30:04.564Z,22.33
2017-10-18T12:32:32.660Z,23.10
2017-10-18T12:35:00.756Z,21.20
2017-10-18T12:37:29.648Z,21.60
2017-10-18T12:39:58.492Z,21.60
2017-10-18T12:42:26.570Z,21.93
2017-10-18T12:44:54.670Z,20.33
2017-10-18T12:47:22.753Z,19.07
2017-10-18T12:49:51.602Z,18.90
2017-10-18T12:52:19.696Z,21.30
2017-10-18T12:54:47.764Z,18.60
2017-10-18T12:57:15.855Z,20.13
2017-10-18T12:59:44.705Z,19.97
2017-10-18T13:02:12.787Z,19.70
2017-10-18T13:04:40.871Z,26.07
2017-10-18T13:07:08.952Z,20.07
2017-10-18T13:09:37.051Z,18.30
2017-10-18T13:12:05.906Z,19.63
2017-10-18T13:14:33.993Z,18.97
2017-10-18T13:17:02.120Z,19.20
2017-10-18T13:19:30.974Z,18.97
2017-10-18T13:21:59.829Z,17.33
2017-10-18T13:24:27.996Z,18.80
2017-10-18T13:26:56.073Z,18.27
2017-10-18T13:29:24.148Z,18.40
2017-10-18T13:31:52.231Z,18.03
2017-10-18T13:34:20.323Z,18.13
2017-10-18T13:36:49.186Z,18.13
2017-10-18T13:39:17.267Z,18.77
2017-10-18T13:41:45.369Z,18.90
2017-10-18T13:44:14.212Z,18.87
2017-10-18T13:46:42.299Z,25.40
2017-10-18T13:49:10.396Z,19.60
2017-10-18T13:51:39.266Z,21.03
2017-10-18T13:54:07.345Z,21.00
2017-10-18T13:56:35.441Z,20.73
2017-10-18T13:59:04.294Z,20.90
2017-10-18T14:01:32.390Z,19.63
2017-10-18T14:04:01.260Z,17.87
2017-10-18T14:06:29.341Z,17.73
2017-10-18T14:08:57.432Z,17.10
2017-10-18T14:11:26.305Z,18.20
2017-10-18T14:13:54.388Z,17.83
2017-10-18T14:16:23.251Z,16.97
2017-10-18T14:18:51.336Z,17.50
2017-10-18T14:21:19.428Z,18.33
2017-10-18T14:23:48.281Z,17.13
2017-10-18T14:26:16.385Z,17.53
2017-10-18T14:28:44.464Z,18.63
2017-10-18T14:31:13.348Z,18.63
2017-10-18T14:33:41.431Z,20.20
2017-10-18T14:36:09.524Z,18.20
2017-10-18T14:38:38.376Z,20.07
2017-10-18T14:41:06.472Z,22.27
2017-10-18T14:43:35.326Z,22.83
2017-10-18T14:46:03.413Z,21.50
2017-10-18T14:48:31.493Z,20.37
2017-10-18T14:50:59.581Z,21.57
2017-10-18T14:53:28.448Z,20.20
2017-10-18T14:55:56.548Z,21.40
2017-10-18T14:58:25.637Z,20.47
2017-10-18T15:00:54.508Z,21.70
2017-10-18T15:03:22.597Z,20.30
2017-10-18T15:05:51.472Z,20.43
2017-10-18T15:08:19.568Z,19.87
2017-10-18T15:10:48.420Z,19.03
2017-10-18T15:13:16.525Z,18.53
2017-10-18T15:15:45.384Z,18.97
2017-10-18T15:18:13.493Z,17.93
2017-10-18T15:20:42.344Z,18.03
2017-10-18T15:23:10.438Z,17.90
2017-10-18T15:25:38.530Z,16.60
2017-10-18T15:28:06.634Z,17.57
2017-10-18T15:30:34.721Z,17.20
2017-10-18T15:33:02.811Z,20.40
2017-10-18T15:35:30.912Z,19.63
2017-10-18T15:37:59.780Z,19.60
2017-10-18T15:40:27.864Z,18.90
2017-10-18T15:42:55.956Z,22.47
2017-10-18T15:45:24.812Z,19.63
2017-10-18T15:47:52.920Z,18.20
2017-10-18T15:50:21.774Z,18.87
2017-10-18T15:52:49.897Z,17.90
2017-10-18T15:55:18.757Z,19.13
2017-10-18T15:57:46.859Z,16.40
2017-10-18T16:00:15.728Z,16.70
2017-10-18T16:02:43.836Z,17.53
2017-10-18T16:05:11.909Z,15.37
2017-10-18T16:07:40.051Z,17.20
2017-10-18T16:10:08.141Z,19.10
2017-10-18T16:12:37.015Z,18.27
2017-10-18T16:15:05.096Z,17.63
2017-10-18T16:17:33.952Z,16.50
2017-10-18T16:20:02.080Z,18.60
2017-10-18T16:22:30.179Z,19.63
2017-10-18T16:25:00.952Z,17.70
2017-10-18T16:27:45.760Z,18.90
2017-10-18T16:30:30.493Z,19.47
2017-10-18T16:33:02.862Z,22.67
2017-10-18T16:35:34.384Z,18.83
2017-10-18T16:38:02.566Z,18.80
2017-10-18T16:40:43.594Z,38.60
2017-10-18T16:43:14.950Z,23.83
2017-10-18T16:45:47.672Z,18.40
2017-10-18T16:48:19.307Z,19.40
2017-10-18T16:50:48.440Z,21.00
2017-10-18T16:53:29.938Z,21.10
2017-10-18T16:56:03.913Z,22.20
2017-10-18T16:58:36.815Z,20.83
2017-10-18T17:01:09.587Z,21.70
2017-10-18T17:03:55.484Z,20.40
2017-10-18T17:06:25.176Z,23.20
2017-10-18T17:08:56.517Z,21.57
2017-10-18T17:11:26.156Z,22.33
2017-10-18T17:13:54.352Z,23.13
2017-10-18T17:16:24.296Z,24.13
2017-10-18T17:19:04.398Z,28.13
2017-10-18T17:21:32.549Z,23.40
2017-10-18T17:24:00.752Z,29.70
2017-10-18T17:26:29.731Z,36.17
2017-10-18T17:29:02.833Z,52.27
2017-10-18T17:31:30.995Z,54.90
2017-10-18T17:34:00.504Z,92.93
2017-10-18T17:36:30.483Z,69.20
2017-10-18T17:38:58.843Z,43.13
2017-10-18T17:41:27.698Z,43.90
2017-10-18T17:43:57.020Z,41.87
2017-10-18T17:46:25.459Z,38.60
2017-10-18T17:48:53.568Z,34.40
2017-10-18T17:51:21.638Z,30.77
2017-10-18T17:53:49.716Z,36.57
2017-10-18T17:56:17.788Z,36.20
2017-10-18T17:58:45.871Z,33.97
2017-10-18T18:01:13.966Z,32.60
2017-10-18T18:03:42.861Z,30.93
2017-10-18T18:06:10.948Z,30.50
2017-10-18T18:08:39.049Z,25.33
2017-10-18T18:11:07.140Z,20.77
2017-10-18T18:13:35.225Z,24.20
2017-10-18T18:16:03.405Z,23.20
2017-10-18T18:18:32.256Z,24.13
2017-10-18T18:21:00.335Z,26.83
2017-10-18T18:23:28.421Z,23.60
2017-10-18T18:25:56.503Z,26.00
2017-10-18T18:28:24.581Z,24.10
2017-10-18T18:30:52.664Z,23.77
2017-10-18T18:33:21.511Z,24.67
2017-10-18T18:35:49.585Z,23.20
2017-10-18T18:38:17.678Z,29.43
2017-10-18T18:40:45.764Z,25.10
2017-10-18T18:43:14.625Z,26.03
2017-10-18T18:45:42.702Z,24.50
2017-10-18T18:48:10.808Z,23.67
2017-10-18T18:50:39.655Z,23.53
2017-10-18T18:53:08.509Z,24.30
2017-10-18T18:55:36.575Z,23.70
2017-10-18T18:58:04.674Z,23.13
2017-10-18T19:00:32.747Z,20.97
2017-10-18T19:03:00.851Z,20.83
2017-10-18T19:05:28.927Z,21.10
2017-10-18T19:07:57.008Z,19.10
2017-10-18T19:10:25.084Z,18.90
2017-10-18T19:12:53.177Z,21.20
2017-10-18T19:15:22.060Z,21.67
2017-10-18T19:17:50.907Z,20.10
2017-10-18T19:20:18.984Z,19.13
2017-10-18T19:22:47.072Z,20.47
2017-10-18T19:25:15.144Z,18.43
2017-10-18T19:27:43.238Z,18.00
2017-10-18T19:30:11.303Z,21.73
2017-10-18T19:32:39.384Z,18.47
2017-10-18T19:35:08.227Z,18.40
2017-10-18T19:37:37.075Z,17.43
2017-10-18T19:40:16.504Z,17.50
2017-10-18T19:42:45.362Z,17.63
2017-10-18T19:45:13.447Z,19.60
2017-10-18T19:47:41.553Z,19.10
2017-10-18T19:50:10.393Z,19.93
2017-10-18T19:52:38.497Z,17.63
2017-10-18T19:55:07.345Z,17.50
2017-10-18T19:57:35.433Z,18.60
2017-10-18T20:00:03.521Z,19.50
2017-10-18T20:02:31.600Z,19.33
2017-10-18T20:05:00.137Z,17.77
2017-10-18T20:07:28.231Z,19.03
2017-10-18T20:09:56.319Z,18.50
2017-10-18T20:12:24.405Z,20.23
2017-10-18T20:14:52.504Z,20.57
2017-10-18T20:17:21.356Z,21.23
2017-10-18T20:19:49.526Z,27.77
2017-10-18T20:22:17.717Z,28.23
2017-10-18T20:24:45.791Z,36.70
2017-10-18T20:27:14.648Z,27.37
2017-10-18T20:29:42.736Z,27.67
2017-10-18T20:32:10.813Z,23.37
2017-10-18T20:34:38.899Z,21.80
2017-10-18T20:37:06.978Z,19.07
2017-10-18T20:39:35.836Z,22.50
2017-10-18T20:42:03.925Z,20.57
2017-10-18T20:44:32.007Z,19.87
2017-10-18T20:47:00.084Z,19.17
2017-10-18T20:49:28.168Z,19.23
2017-10-18T20:51:57.015Z,18.60
2017-10-18T20:54:25.112Z,17.77
2017-10-18T20:56:53.192Z,17.07
2017-10-18T20:59:22.055Z,17.93
2017-10-18T21:01:50.247Z,19.90
2017-10-18T21:04:18.331Z,20.37
2017-10-18T21:06:47.185Z,24.00
2017-10-18T21:09:15.285Z,21.20
2017-10-18T21:11:43.376Z,21.87
2017-10-18T21:14:12.252Z,21.30
2017-10-18T21:16:40.328Z,24.13
2017-10-18T21:19:08.420Z,26.27
2017-10-18T21:21:37.292Z,26.30
2017-10-18T21:24:05.359Z,25.30
2017-10-18T21:26:33.446Z,26.57
2017-10-18T21:29:02.377Z,29.13
2017-10-18T21:31:30.511Z,28.83
2017-10-18T21:33:59.536Z,31.17
2017-10-18T21:36:27.621Z,32.80
2017-10-18T21:38:55.720Z,31.30
2017-10-18T21:41:23.815Z,30.37
2017-10-18T21:43:51.941Z,34.73
2017-10-18T21:46:20.075Z,32.00
2017-10-18T21:48:48.948Z,32.00
2017-10-18T21:51:17.036Z,32.13
2017-10-18T21:53:45.881Z,30.27
2017-10-18T21:56:15.968Z,26.63
2017-10-18T21:58:47.030Z,25.13
2017-10-18T22:01:15.432Z,22.97
2017-10-18T22:03:43.505Z,22.87
2017-10-18T22:06:11.597Z,24.50
2017-10-18T22:08:39.676Z,22.93
2017-10-18T22:11:07.767Z,23.17
2017-10-18T22:13:36.611Z,23.90
2017-10-18T22:16:04.700Z,26.20
2017-10-18T22:18:32.776Z,28.80
2017-10-18T22:21:00.856Z,48.27
2017-10-18T22:23:28.934Z,36.87
2017-10-18T22:25:57.793Z,59.90
2017-10-18T22:28:25.872Z,39.57
2017-10-18T22:30:53.952Z,31.60
2017-10-18T22:33:22.038Z,28.67
2017-10-18T22:35:50.115Z,36.77
2017-10-18T22:38:18.967Z,30.13
2017-10-18T22:40:47.061Z,30.27
2017-10-18T22:43:15.135Z,30.37
2017-10-18T22:45:43.226Z,31.93
2017-10-18T22:48:12.107Z,26.50
2017-10-18T22:50:40.201Z,26.60
2017-10-18T22:53:09.068Z,23.83
2017-10-18T22:55:38.883Z,23.23
2017-10-18T22:58:06.959Z,23.60
2017-10-18T23:00:35.041Z,22.77
2017-10-18T23:03:03.897Z,23.27
2017-10-18T23:05:31.992Z,23.20
2017-10-18T23:08:00.078Z,21.93
2017-10-18T23:10:28.939Z,21.43
2017-10-18T23:12:57.008Z,22.90
2017-10-18T23:15:25.168Z,24.20
2017-10-18T23:17:53.240Z,25.53
2017-10-18T23:20:21.324Z,27.60
2017-10-18T23:22:50.228Z,27.67
2017-10-18T23:25:18.316Z,28.17
2017-10-18T23:27:46.388Z,32.47
2017-10-18T23:30:14.471Z,34.00
2017-10-18T23:32:43.312Z,34.37
2017-10-18T23:35:12.339Z,36.53
2017-10-18T23:37:40.409Z,37.33
2017-10-18T23:40:08.500Z,33.73
2017-10-18T23:42:37.336Z,34.37
2017-10-18T23:45:05.407Z,30.53
2017-10-18T23:47:33.512Z,32.53
2017-10-18T23:50:01.584Z,31.70
2017-10-18T23:52:35.272Z,27.47
2017-10-18T23:55:03.353Z,27.57
2017-10-18T23:57:31.440Z,28.40
2017-10-18T23:59:59.514Z,26.07
